createdAt,value
2019-03-04T00:00:57.156Z,2.20
2019-03-04T00:03:26.407Z,2.30
2019-03-04T00:05:56.381Z,2.10
2019-03-04T00:08:25.737Z,2.10
2019-03-04T00:10:55.035Z,1.90
2019-03-04T00:13:24.366Z,2.50
2019-03-04T00:15:53.743Z,1.80
2019-03-04T00:18:23.203Z,2.00
2019-03-04T00:20:52.826Z,2.10
2019-03-04T00:23:22.107Z,2.00
2019-03-04T00:25:51.880Z,2.17
2019-03-04T00:28:20.703Z,2.37
2019-03-04T00:30:50.075Z,1.90
2019-03-04T00:33:19.482Z,2.03
2019-03-04T00:35:48.758Z,2.23
2019-03-04T00:38:18.111Z,2.27
2019-03-04T00:40:47.430Z,2.30
2019-03-04T00:43:16.713Z,1.73
2019-03-04T00:45:46.170Z,2.17
2019-03-04T00:48:15.487Z,1.90
2019-03-04T00:50:45.544Z,2.17
2019-03-04T00:53:14.946Z,2.43
2019-03-04T00:55:44.441Z,2.13
2019-03-04T00:58:13.818Z,2.10
2019-03-04T01:00:43.204Z,2.30
2019-03-04T01:03:12.568Z,2.23
2019-03-04T01:05:41.905Z,2.43
2019-03-04T01:08:11.188Z,2.17
2019-03-04T01:10:40.515Z,1.93
2019-03-04T01:13:09.902Z,2.90
2019-03-04T01:15:39.280Z,1.90
2019-03-04T01:18:08.556Z,2.07
2019-03-04T01:20:37.977Z,2.20
2019-03-04T01:23:07.391Z,1.70
2019-03-04T01:25:36.732Z,2.20
2019-03-04T01:28:06.102Z,2.10
2019-03-04T01:30:35.425Z,2.00
2019-03-04T01:33:04.840Z,2.20
2019-03-04T01:35:34.235Z,2.40
2019-03-04T01:38:04.288Z,2.07
2019-03-04T01:40:33.607Z,2.27
2019-03-04T01:43:03.068Z,1.90
2019-03-04T01:45:32.482Z,2.20
2019-03-04T01:48:02.770Z,2.47
2019-03-04T01:50:32.129Z,2.17
2019-03-04T01:53:01.473Z,2.30
2019-03-04T01:55:30.899Z,2.27
2019-03-04T01:58:00.353Z,2.10
2019-03-04T02:00:29.732Z,2.23
2019-03-04T02:02:59.140Z,2.53
2019-03-04T02:05:28.602Z,2.30
2019-03-04T02:07:58.011Z,2.20
2019-03-04T02:10:27.306Z,2.13
2019-03-04T02:12:56.683Z,2.40
2019-03-04T02:15:26.041Z,2.23
2019-03-04T02:17:55.469Z,2.40
2019-03-04T02:20:24.731Z,2.50
2019-03-04T02:22:54.128Z,2.63
2019-03-04T02:26:33.956Z,1.93
2019-03-04T02:29:03.240Z,2.47
2019-03-04T02:31:33.450Z,2.13
2019-03-04T02:34:02.852Z,2.60
2019-03-04T02:36:32.899Z,2.20
2019-03-04T02:39:02.208Z,2.13
2019-03-04T02:41:33.573Z,2.27
2019-03-04T02:44:02.893Z,2.30
2019-03-04T02:46:33.654Z,2.17
2019-03-04T02:49:02.972Z,2.13
2019-03-04T02:51:32.273Z,2.10
2019-03-04T02:54:02.145Z,2.60
2019-03-04T02:56:31.978Z,2.13
2019-03-04T02:59:01.405Z,2.30
2019-03-04T03:01:32.405Z,2.20
2019-03-04T03:04:01.846Z,2.13
2019-03-04T03:06:31.143Z,2.00
2019-03-04T03:09:00.510Z,2.43
2019-03-04T03:11:29.831Z,2.43
2019-03-04T03:13:59.275Z,2.50
2019-03-04T03:16:28.625Z,2.07
2019-03-04T03:18:57.998Z,2.23
2019-03-04T03:21:27.350Z,2.17
2019-03-04T03:23:59.166Z,2.13
2019-03-04T03:26:27.016Z,2.10
2019-03-04T03:28:56.523Z,2.10
2019-03-04T03:31:25.905Z,2.03
2019-03-04T03:33:56.250Z,1.80
2019-03-04T03:36:26.179Z,2.30
2019-03-04T03:38:55.534Z,2.00
2019-03-04T03:41:24.904Z,2.00
2019-03-04T03:43:54.203Z,2.47
2019-03-04T03:46:23.635Z,1.83
2019-03-04T03:48:52.926Z,2.10
2019-03-04T03:51:23.267Z,2.17
2019-03-04T03:53:52.583Z,2.00
2019-03-04T03:56:22.684Z,1.77
2019-03-04T03:58:51.990Z,2.00
2019-03-04T04:01:21.425Z,2.20
2019-03-04T04:03:50.826Z,1.90
2019-03-04T04:06:20.273Z,2.20
2019-03-04T04:08:49.597Z,1.70
2019-03-04T04:11:18.996Z,2.20
2019-03-04T04:13:48.298Z,2.07
2019-03-04T04:16:17.570Z,2.10
2019-03-04T04:18:46.905Z,1.90
2019-03-04T04:21:16.336Z,2.20
2019-03-04T04:23:46.694Z,2.00
2019-03-04T04:26:22.820Z,1.90
2019-03-04T04:29:09.226Z,2.00
2019-03-04T04:31:40.214Z,2.33
2019-03-04T04:34:09.491Z,2.20
2019-03-04T04:36:38.816Z,1.90
2019-03-04T04:39:08.948Z,2.07
2019-03-04T04:41:38.365Z,2.20
2019-03-04T04:44:07.753Z,2.17
2019-03-04T04:46:49.162Z,2.10
2019-03-04T04:49:18.652Z,1.83
2019-03-04T04:51:48.044Z,2.40
2019-03-04T04:54:17.562Z,1.97
2019-03-04T04:56:46.944Z,2.30
2019-03-04T04:59:16.366Z,2.03
2019-03-04T05:01:46.366Z,1.90
2019-03-04T05:04:15.801Z,2.50
2019-03-04T05:06:45.105Z,2.07
2019-03-04T05:09:14.464Z,2.07
2019-03-04T05:11:43.824Z,2.40
2019-03-04T05:14:14.192Z,2.20
2019-03-04T05:16:43.540Z,2.20
2019-03-04T05:19:13.101Z,2.10
2019-03-04T05:21:43.079Z,2.40
2019-03-04T05:24:12.378Z,2.70
2019-03-04T05:26:41.677Z,2.30
2019-03-04T05:29:11.046Z,2.30
2019-03-04T05:31:41.354Z,2.20
2019-03-04T05:34:10.833Z,1.90
2019-03-04T05:36:40.268Z,2.60
2019-03-04T05:39:09.694Z,2.10
2019-03-04T05:41:39.120Z,1.83
2019-03-04T05:44:08.449Z,2.30
2019-03-04T05:46:37.713Z,2.23
2019-03-04T05:49:07.100Z,2.40
2019-03-04T05:51:36.460Z,2.13
2019-03-04T05:54:09.552Z,2.17
2019-03-04T05:56:38.835Z,2.50
2019-03-04T05:59:08.174Z,2.60
2019-03-04T06:01:40.866Z,2.63
2019-03-04T06:04:12.356Z,1.97
2019-03-04T06:06:49.032Z,2.30
2019-03-04T06:09:18.353Z,2.27
2019-03-04T06:11:47.749Z,2.20
2019-03-04T06:14:17.121Z,1.97
2019-03-04T06:16:47.509Z,2.20
2019-03-04T06:19:15.759Z,2.23
2019-03-04T06:21:45.113Z,2.47
2019-03-04T06:24:14.440Z,2.13
2019-03-04T06:26:43.812Z,2.93
2019-03-04T06:29:13.068Z,2.00
2019-03-04T06:31:42.399Z,2.43
2019-03-04T06:34:11.691Z,2.10
2019-03-04T06:36:41.929Z,2.13
2019-03-04T06:39:11.288Z,2.70
2019-03-04T06:41:40.791Z,2.40
2019-03-04T06:44:10.101Z,2.47
2019-03-04T06:46:39.476Z,2.70
2019-03-04T06:49:08.897Z,2.60
2019-03-04T06:51:45.281Z,2.50
2019-03-04T06:54:49.592Z,2.50
2019-03-04T06:57:28.551Z,2.80
2019-03-04T07:01:05.322Z,2.60
2019-03-04T07:03:43.045Z,2.47
2019-03-04T07:06:12.444Z,2.57
2019-03-04T07:09:14.886Z,1.90
2019-03-04T07:11:46.085Z,1.37
2019-03-04T07:14:15.405Z,1.70
2019-03-04T07:16:45.794Z,1.50
2019-03-04T07:19:21.609Z,1.13
2019-03-04T07:21:50.972Z,1.40
2019-03-04T07:24:20.273Z,1.57
2019-03-04T07:26:49.829Z,1.30
2019-03-04T07:29:19.169Z,1.90
2019-03-04T07:31:48.374Z,1.90
2019-03-04T07:34:17.644Z,1.50
2019-03-04T07:36:46.854Z,1.50
2019-03-04T07:39:18.170Z,2.30
2019-03-04T07:41:50.118Z,1.80
2019-03-04T07:44:19.417Z,1.50
2019-03-04T07:46:48.732Z,1.80
2019-03-04T07:49:17.966Z,1.87
2019-03-04T07:51:47.360Z,1.40
2019-03-04T07:54:16.651Z,1.43
2019-03-04T07:56:46.111Z,1.30
2019-03-04T07:59:15.405Z,1.40
2019-03-04T08:01:44.792Z,1.23
2019-03-04T08:04:14.181Z,1.43
2019-03-04T08:06:43.478Z,1.40
2019-03-04T08:11:28.207Z,1.17
2019-03-04T08:14:00.614Z,1.20
2019-03-04T08:16:29.939Z,1.43
2019-03-04T08:18:59.305Z,1.30
2019-03-04T08:21:29.208Z,1.50
2019-03-04T08:23:58.659Z,1.00
2019-03-04T08:26:27.953Z,1.57
2019-03-04T08:28:58.770Z,1.07
2019-03-04T08:31:26.687Z,1.00
2019-03-04T08:33:56.684Z,1.03
2019-03-04T08:36:26.013Z,1.10
2019-03-04T08:38:55.360Z,1.10
2019-03-04T08:41:24.772Z,1.30
2019-03-04T08:43:54.240Z,1.10
2019-03-04T08:46:24.201Z,1.20
2019-03-04T08:48:53.521Z,1.10
2019-03-04T08:51:22.828Z,1.83
2019-03-04T08:53:52.176Z,1.13
2019-03-04T08:56:21.529Z,1.10
2019-03-04T08:58:50.870Z,1.13
2019-03-04T09:01:20.457Z,1.10
2019-03-04T09:03:49.848Z,1.10
2019-03-04T09:06:19.133Z,1.07
2019-03-04T09:08:48.459Z,1.33
2019-03-04T09:11:17.775Z,1.10
2019-03-04T09:13:47.146Z,0.83
2019-03-04T09:16:16.547Z,1.27
2019-03-04T09:18:45.855Z,1.27
2019-03-04T09:21:15.189Z,0.90
2019-03-04T09:23:44.541Z,1.00
2019-03-04T09:26:13.895Z,1.27
2019-03-04T09:28:43.264Z,1.20
2019-03-04T09:31:12.588Z,0.90
2019-03-04T09:33:41.925Z,1.30
2019-03-04T09:36:11.357Z,1.23
2019-03-04T09:38:40.648Z,1.00
2019-03-04T09:41:09.971Z,1.50
2019-03-04T09:43:39.320Z,1.20
2019-03-04T09:46:08.637Z,1.10
2019-03-04T09:48:37.934Z,1.10
2019-03-04T09:51:07.236Z,1.10
2019-03-04T09:53:39.717Z,1.17
2019-03-04T09:56:05.947Z,1.33
2019-03-04T09:58:35.906Z,1.00
2019-03-04T10:01:17.868Z,0.97
2019-03-04T10:04:07.727Z,1.00
2019-03-04T10:07:01.380Z,1.10
2019-03-04T10:09:53.633Z,1.20
2019-03-04T10:13:40.229Z,1.00
2019-03-04T10:16:34.792Z,0.83
2019-03-04T10:19:26.280Z,0.80
2019-03-04T10:22:13.359Z,1.00
2019-03-04T10:25:03.175Z,0.80
2019-03-04T10:27:49.535Z,0.77
2019-03-04T10:30:47.298Z,0.80
2019-03-04T10:33:54.411Z,0.70
2019-03-04T10:37:38.988Z,1.20
2019-03-04T10:40:36.596Z,1.00
2019-03-04T10:43:43.712Z,1.10
2019-03-04T10:46:28.610Z,0.83
2019-03-04T10:48:57.983Z,1.37
2019-03-04T10:51:27.325Z,1.67
2019-03-04T10:53:56.816Z,1.23
2019-03-04T10:56:26.146Z,1.10
2019-03-04T10:58:55.439Z,1.40
2019-03-04T11:01:30.425Z,1.60
2019-03-04T11:03:54.119Z,1.23
2019-03-04T11:06:23.467Z,2.20
2019-03-04T11:08:52.781Z,1.60
2019-03-04T11:11:29.465Z,1.70
2019-03-04T11:13:51.401Z,1.20
2019-03-04T11:16:20.773Z,1.43
2019-03-04T11:18:56.635Z,1.43
2019-03-04T11:21:25.972Z,1.73
2019-03-04T11:23:55.864Z,1.07
2019-03-04T11:26:25.247Z,1.07
2019-03-04T11:28:54.526Z,1.20
2019-03-04T11:31:23.817Z,1.13
2019-03-04T11:33:53.081Z,1.00
2019-03-04T11:36:22.456Z,1.10
2019-03-04T11:38:58.596Z,1.00
2019-03-04T11:41:27.863Z,1.30
2019-03-04T11:43:57.146Z,1.23
2019-03-04T11:46:26.436Z,1.40
2019-03-04T11:48:55.724Z,1.23
2019-03-04T11:51:25.056Z,1.50
2019-03-04T11:53:56.420Z,1.50
2019-03-04T11:56:25.699Z,1.17
2019-03-04T11:58:55.051Z,1.20
2019-03-04T12:01:29.412Z,1.37
2019-03-04T12:03:58.733Z,1.60
2019-03-04T12:06:28.089Z,1.60
2019-03-04T12:08:57.916Z,1.60
2019-03-04T12:11:27.349Z,1.53
2019-03-04T12:13:56.687Z,1.30
2019-03-04T12:16:26.060Z,1.20
2019-03-04T12:18:55.435Z,1.13
2019-03-04T12:21:24.811Z,0.80
2019-03-04T12:23:54.180Z,1.73
2019-03-04T12:26:24.488Z,1.30
2019-03-04T12:28:53.779Z,1.60
2019-03-04T12:31:23.139Z,1.10
2019-03-04T12:33:52.409Z,1.00
2019-03-04T12:36:21.712Z,1.23
2019-03-04T12:38:51.652Z,1.07
2019-03-04T12:41:20.976Z,1.50
2019-03-04T12:43:50.320Z,1.20
2019-03-04T12:46:19.600Z,1.10
2019-03-04T12:48:48.982Z,1.43
2019-03-04T12:51:23.112Z,1.30
2019-03-04T12:53:47.593Z,1.70
2019-03-04T12:56:17.012Z,1.47
2019-03-04T12:58:46.334Z,1.50
2019-03-04T13:01:16.226Z,1.77
2019-03-04T13:03:45.623Z,2.00
2019-03-04T13:06:14.936Z,1.47
2019-03-04T13:08:44.227Z,1.30
2019-03-04T13:11:13.694Z,1.33
2019-03-04T13:13:44.813Z,1.60
2019-03-04T13:16:14.201Z,1.30
2019-03-04T13:18:43.511Z,0.97
2019-03-04T13:21:12.850Z,1.40
2019-03-04T13:23:42.680Z,1.13
2019-03-04T13:26:12.269Z,1.57
2019-03-04T13:28:42.317Z,1.53
2019-03-04T13:31:11.700Z,1.10
2019-03-04T13:33:41.024Z,1.40
2019-03-04T13:36:11.328Z,1.23
2019-03-04T13:38:40.631Z,1.77
2019-03-04T13:41:10.145Z,1.50
2019-03-04T13:43:39.553Z,1.70
2019-03-04T13:46:08.843Z,1.80
2019-03-04T13:48:38.173Z,1.77
2019-03-04T13:51:07.608Z,1.70
2019-03-04T13:53:37.089Z,1.40
2019-03-04T13:56:06.470Z,1.87
2019-03-04T13:58:35.858Z,1.37
2019-03-04T14:01:05.352Z,1.67
2019-03-04T14:03:34.646Z,1.67
2019-03-04T14:06:04.011Z,1.67
2019-03-04T14:08:33.440Z,1.70
2019-03-04T14:11:03.907Z,1.93
2019-03-04T14:13:33.960Z,1.50
2019-03-04T14:16:03.296Z,1.60
2019-03-04T14:18:32.720Z,1.70
2019-03-04T14:21:02.109Z,1.90
2019-03-04T14:23:31.401Z,2.37
2019-03-04T14:26:00.677Z,1.87
2019-03-04T14:28:30.062Z,2.40
2019-03-04T14:30:59.551Z,1.73
2019-03-04T14:33:28.863Z,1.83
2019-03-04T14:35:58.206Z,2.60
2019-03-04T14:38:27.487Z,1.60
2019-03-04T14:40:56.836Z,1.60
2019-03-04T14:43:26.166Z,1.93
2019-03-04T14:45:55.595Z,1.23
2019-03-04T14:48:24.932Z,1.67
2019-03-04T14:50:54.768Z,3.53
2019-03-04T14:53:24.088Z,2.10
2019-03-04T14:55:53.412Z,1.30
2019-03-04T14:58:22.737Z,1.50
2019-03-04T15:00:52.288Z,1.93
2019-03-04T15:03:23.991Z,1.67
2019-03-04T15:05:51.012Z,1.97
2019-03-04T15:08:20.406Z,1.70
2019-03-04T15:10:49.771Z,1.33
2019-03-04T15:13:19.109Z,1.40
2019-03-04T15:15:48.376Z,2.03
2019-03-04T15:18:17.672Z,1.07
2019-03-04T15:20:47.090Z,0.80
2019-03-04T15:23:16.406Z,0.70
2019-03-04T15:25:46.568Z,1.00
2019-03-04T15:28:20.017Z,0.87
2019-03-04T15:30:52.880Z,0.80
2019-03-04T15:33:22.223Z,0.63
2019-03-04T15:35:51.631Z,0.60
2019-03-04T15:38:21.306Z,1.00
2019-03-04T15:40:50.791Z,0.80
2019-03-04T15:43:20.089Z,0.83
2019-03-04T15:45:50.309Z,0.63
2019-03-04T15:48:21.657Z,0.80
2019-03-04T15:50:51.056Z,1.07
2019-03-04T15:53:20.417Z,0.80
2019-03-04T15:55:50.784Z,0.93
2019-03-04T15:58:20.227Z,0.70
2019-03-04T16:00:49.688Z,0.87
2019-03-04T16:03:19.596Z,0.80
2019-03-04T16:05:48.939Z,0.67
2019-03-04T16:08:18.376Z,0.70
2019-03-04T16:10:47.737Z,0.90
2019-03-04T16:13:17.065Z,0.67
2019-03-04T16:15:46.562Z,0.70
2019-03-04T16:18:16.092Z,0.80
2019-03-04T16:20:46.056Z,1.27
2019-03-04T16:23:15.400Z,0.90
2019-03-04T16:25:45.456Z,1.00
2019-03-04T16:28:19.360Z,1.13
2019-03-04T16:30:51.232Z,0.93
2019-03-04T16:33:20.534Z,0.90
2019-03-04T16:35:49.911Z,1.00
2019-03-04T16:38:19.167Z,1.07
2019-03-04T16:40:49.038Z,0.90
2019-03-04T16:43:18.339Z,1.00
2019-03-04T16:45:47.599Z,1.00
2019-03-04T16:48:16.907Z,1.00
2019-03-04T16:50:47.457Z,1.30
2019-03-04T16:53:17.834Z,1.27
2019-03-04T16:55:47.300Z,1.20
2019-03-04T16:58:16.611Z,1.47
2019-03-04T17:00:46.092Z,1.10
2019-03-04T17:03:15.715Z,1.23
2019-03-04T17:05:45.115Z,1.47
2019-03-04T17:08:14.404Z,1.20
2019-03-04T17:10:43.727Z,1.43
2019-03-04T17:13:13.059Z,1.80
2019-03-04T17:15:42.517Z,1.50
2019-03-04T17:18:11.810Z,1.40
2019-03-04T17:20:41.140Z,1.60
2019-03-04T17:23:10.475Z,1.70
2019-03-04T17:25:39.813Z,1.77
2019-03-04T17:28:09.765Z,1.40
2019-03-04T17:30:39.263Z,1.40
2019-03-04T17:33:08.537Z,1.37
2019-03-04T17:35:37.887Z,1.20
2019-03-04T17:38:07.274Z,1.67
2019-03-04T17:40:36.656Z,1.23
2019-03-04T17:43:06.073Z,1.30
2019-03-04T17:45:35.364Z,1.27
2019-03-04T17:48:04.683Z,1.20
2019-03-04T17:50:35.727Z,1.20
2019-03-04T17:53:06.911Z,1.33
2019-03-04T17:55:36.296Z,1.50
2019-03-04T17:58:05.620Z,1.37
2019-03-04T18:00:35.063Z,1.30
2019-03-04T18:03:04.318Z,1.20
2019-03-04T18:05:33.604Z,1.10
2019-03-04T18:08:02.920Z,1.10
2019-03-04T18:10:32.230Z,1.20
2019-03-04T18:13:01.978Z,1.40
2019-03-04T18:15:31.314Z,1.60
2019-03-04T18:18:00.672Z,1.40
2019-03-04T18:20:34.534Z,1.30
2019-03-04T18:22:59.394Z,1.27
2019-03-04T18:25:35.926Z,1.10
2019-03-04T18:28:11.453Z,1.30
2019-03-04T18:31:26.862Z,1.17
2019-03-04T18:34:31.116Z,1.27
2019-03-04T18:37:11.994Z,1.30
2019-03-04T18:39:57.064Z,1.60
2019-03-04T18:44:57.146Z,1.23
2019-03-04T18:48:48.541Z,1.17
2019-03-04T18:51:17.826Z,1.40
2019-03-04T18:53:47.074Z,1.30
2019-03-04T18:56:21.965Z,1.40
2019-03-04T18:58:46.233Z,1.37
2019-03-04T19:01:15.915Z,1.30
2019-03-04T19:03:45.832Z,1.47
2019-03-04T19:06:15.582Z,1.63
2019-03-04T19:08:44.855Z,1.37
2019-03-04T19:11:14.904Z,1.67
2019-03-04T19:13:44.454Z,1.40
2019-03-04T19:16:14.137Z,1.47
2019-03-04T19:18:43.498Z,1.53
2019-03-04T19:21:13.700Z,1.90
2019-03-04T19:23:43.544Z,1.90
2019-03-04T19:26:12.941Z,2.00
2019-03-04T19:28:42.275Z,2.37
2019-03-04T19:31:11.676Z,2.30
2019-03-04T19:33:40.951Z,2.70
2019-03-04T19:36:10.261Z,3.13
2019-03-04T19:38:40.113Z,3.50
2019-03-04T19:41:09.621Z,3.77
2019-03-04T19:43:38.961Z,4.20
2019-03-04T19:46:08.295Z,3.80
2019-03-04T19:48:37.714Z,3.90
2019-03-04T19:51:07.174Z,4.80
2019-03-04T19:53:36.516Z,4.30
2019-03-04T19:56:05.945Z,4.10
2019-03-04T19:58:35.197Z,3.77
2019-03-04T20:01:05.348Z,3.63
2019-03-04T20:03:35.546Z,3.47
2019-03-04T20:06:05.938Z,3.27
2019-03-04T20:08:35.254Z,3.60
2019-03-04T20:11:04.715Z,3.33
2019-03-04T20:13:34.051Z,3.60
2019-03-04T20:16:04.468Z,3.20
2019-03-04T20:18:33.829Z,2.87
2019-03-04T20:21:03.104Z,3.20
2019-03-04T20:23:32.484Z,2.70
2019-03-04T20:26:01.828Z,3.13
2019-03-04T20:28:37.722Z,2.80
2019-03-04T20:31:07.022Z,2.40
2019-03-04T20:33:36.369Z,2.53
2019-03-04T20:36:05.808Z,2.43
2019-03-04T20:38:39.945Z,2.53
2019-03-04T20:41:09.316Z,2.57
2019-03-04T20:43:38.664Z,2.30
2019-03-04T20:46:07.993Z,2.40
2019-03-04T20:48:39.519Z,2.30
2019-03-04T20:51:08.833Z,2.40
2019-03-04T20:53:38.651Z,2.60
2019-03-04T20:56:08.029Z,2.03
2019-03-04T20:58:37.295Z,2.37
2019-03-04T21:01:06.653Z,2.23
2019-03-04T21:03:35.990Z,2.20
2019-03-04T21:06:05.300Z,2.23
2019-03-04T21:08:34.823Z,2.27
2019-03-04T21:11:04.247Z,2.13
2019-03-04T21:13:35.844Z,2.40
2019-03-04T21:16:02.865Z,2.20
2019-03-04T21:18:32.259Z,2.67
2019-03-04T21:21:01.512Z,2.33
2019-03-04T21:23:30.764Z,2.70
2019-03-04T21:26:07.396Z,2.20
2019-03-04T21:29:52.856Z,2.37
2019-03-04T21:32:38.709Z,2.40
2019-03-04T21:36:06.627Z,2.70
2019-03-04T21:38:36.116Z,2.60
2019-03-04T21:41:22.509Z,2.50
2019-03-04T21:44:02.693Z,3.20
2019-03-04T21:46:54.702Z,3.07
2019-03-04T21:49:25.472Z,3.20
2019-03-04T21:53:08.214Z,3.30
2019-03-04T21:55:47.909Z,3.20
2019-03-04T21:58:17.238Z,3.13
2019-03-04T22:00:54.205Z,3.17
2019-03-04T22:03:27.896Z,3.43
2019-03-04T22:05:57.460Z,3.62
2019-03-04T22:08:28.346Z,3.67
2019-03-04T22:10:57.764Z,3.50
2019-03-04T22:13:27.913Z,3.60
2019-03-04T22:15:57.250Z,3.75
2019-03-04T22:18:26.683Z,3.47
2019-03-04T22:20:56.019Z,3.33
2019-03-04T22:23:25.321Z,3.03
2019-03-04T22:26:02.006Z,3.50
2019-03-04T22:28:24.444Z,3.30
2019-03-04T22:30:53.726Z,3.23
2019-03-04T22:33:23.104Z,3.07
2019-03-04T22:35:52.370Z,3.30
2019-03-04T22:38:21.646Z,2.40
2019-03-04T22:40:50.934Z,2.50
2019-03-04T22:43:20.304Z,2.30
2019-03-04T22:45:49.503Z,2.33
2019-03-04T22:48:18.726Z,1.40
2019-03-04T22:50:48.089Z,1.47
2019-03-04T22:53:17.301Z,1.50
2019-03-04T22:55:46.810Z,1.27
2019-03-04T22:58:27.772Z,1.30
2019-03-04T23:02:03.373Z,1.50
2019-03-04T23:04:48.273Z,1.57
2019-03-04T23:07:23.827Z,1.70
2019-03-04T23:11:02.731Z,1.90
2019-03-04T23:13:44.622Z,2.57
2019-03-04T23:16:17.935Z,2.40
2019-03-04T23:18:47.792Z,2.20
2019-03-04T23:21:17.118Z,2.63
2019-03-04T23:23:46.533Z,2.80
2019-03-04T23:26:15.841Z,2.60
2019-03-04T23:28:45.225Z,2.60
2019-03-04T23:31:14.527Z,2.57
2019-03-04T23:33:44.356Z,2.80
2019-03-04T23:36:13.717Z,2.23
2019-03-04T23:38:43.033Z,2.50
2019-03-04T23:41:14.206Z,2.63
2019-03-04T23:43:41.992Z,3.60
2019-03-04T23:46:11.325Z,3.13
2019-03-04T23:48:41.592Z,2.43
2019-03-04T23:51:10.840Z,2.47
2019-03-04T23:53:40.209Z,2.63
2019-03-04T23:56:09.487Z,2.33
2019-03-04T23:58:38.804Z,2.50
